createdAt,value
2018-09-27T00:00:30.165Z,13.63
2018-09-27T00:01:30.193Z,13.58
2018-09-27T00:02:30.223Z,13.58
2018-09-27T00:03:30.265Z,13.60
2018-09-27T00:04:30.274Z,13.60
2018-09-27T00:05:30.303Z,13.63
2018-09-27T00:06:30.334Z,13.55
2018-09-27T00:07:30.357Z,13.54
2018-09-27T00:08:30.382Z,13.51
2018-09-27T00:09:30.410Z,13.48
2018-09-27T00:10:30.435Z,13.55
2018-09-27T00:11:30.464Z,13.45
2018-09-27T00:12:30.489Z,13.48
2018-09-27T00:13:30.516Z,13.51
2018-09-27T00:14:30.543Z,13.50
2018-09-27T00:15:30.574Z,13.45
2018-09-27T00:16:30.596Z,13.51
2018-09-27T00:17:30.625Z,13.42
2018-09-27T00:18:30.650Z,13.42
2018-09-27T00:19:30.715Z,13.42
2018-09-27T00:20:30.704Z,13.42
2018-09-27T00:21:30.730Z,13.36
2018-09-27T00:22:30.760Z,13.35
2018-09-27T00:23:30.785Z,13.36
2018-09-27T00:24:30.813Z,13.37
2018-09-27T00:25:30.838Z,13.37
2018-09-27T00:26:30.868Z,13.44
2018-09-27T00:27:30.894Z,13.44
2018-09-27T00:28:30.920Z,13.42
2018-09-27T00:29:30.948Z,13.40
2018-09-27T00:30:30.972Z,13.40
2018-09-27T00:31:31.002Z,13.40
2018-09-27T00:33:31.053Z,13.25
2018-09-27T00:34:31.083Z,13.27
2018-09-27T00:35:31.107Z,13.32
2018-09-27T00:36:31.133Z,13.29
2018-09-27T00:37:31.160Z,13.27
2018-09-27T00:38:31.188Z,13.27
2018-09-27T00:39:31.216Z,13.31
2018-09-27T00:40:31.241Z,13.29
2018-09-27T00:41:31.267Z,13.29
2018-09-27T00:42:31.293Z,13.29
2018-09-27T00:43:31.321Z,13.32
2018-09-27T00:44:31.348Z,13.27
2018-09-27T00:45:31.375Z,13.29
2018-09-27T00:46:31.602Z,13.27
2018-09-27T00:47:31.427Z,13.25
2018-09-27T00:48:31.472Z,13.24
2018-09-27T00:49:31.481Z,13.20
2018-09-27T00:50:31.509Z,13.25
2018-09-27T00:51:31.538Z,13.24
2018-09-27T00:52:31.562Z,13.19
2018-09-27T00:53:31.588Z,13.20
2018-09-27T00:54:31.637Z,13.21
2018-09-27T00:55:31.641Z,13.16
2018-09-27T00:56:31.667Z,13.17
2018-09-27T00:57:31.694Z,13.19
2018-09-27T00:58:31.724Z,13.17
2018-09-27T00:59:31.755Z,13.20
2018-09-27T01:00:31.778Z,13.19
2018-09-27T01:01:31.801Z,13.24
2018-09-27T01:02:31.828Z,13.16
2018-09-27T01:03:31.855Z,13.14
2018-09-27T01:04:31.881Z,13.16
2018-09-27T01:05:31.910Z,13.10
2018-09-27T01:06:31.935Z,13.13
2018-09-27T01:07:31.982Z,13.14
2018-09-27T01:08:31.990Z,13.06
2018-09-27T01:09:32.015Z,13.17
2018-09-27T01:10:32.042Z,13.10
2018-09-27T01:11:32.071Z,13.09
2018-09-27T01:12:32.095Z,13.09
2018-09-27T01:13:32.121Z,13.07
2018-09-27T01:14:32.150Z,13.07
2018-09-27T01:15:32.179Z,13.03
2018-09-27T01:16:32.202Z,13.09
2018-09-27T01:17:32.228Z,13.02
2018-09-27T01:18:32.256Z,13.03
2018-09-27T01:19:32.282Z,13.09
2018-09-27T01:20:32.309Z,13.06
2018-09-27T01:21:32.338Z,13.06
2018-09-27T01:22:32.364Z,13.02
2018-09-27T01:23:32.389Z,13.06
2018-09-27T01:24:32.417Z,12.94
2018-09-27T01:25:32.441Z,13.01
2018-09-27T01:26:32.471Z,12.92
2018-09-27T01:27:32.500Z,13.02
2018-09-27T01:28:32.524Z,12.94
2018-09-27T01:29:32.900Z,13.02
2018-09-27T01:30:32.578Z,12.95
2018-09-27T01:31:32.620Z,12.92
2018-09-27T01:32:32.632Z,13.06
2018-09-27T01:33:32.656Z,12.95
2018-09-27T01:34:32.684Z,12.98
2018-09-27T01:35:32.709Z,12.94
2018-09-27T01:36:32.736Z,12.94
2018-09-27T01:37:32.765Z,12.99
2018-09-27T01:38:32.790Z,12.91
2018-09-27T01:39:32.818Z,12.94
2018-09-27T01:40:32.844Z,12.94
2018-09-27T01:41:32.869Z,12.96
2018-09-27T01:42:32.898Z,12.99
2018-09-27T01:43:32.927Z,12.88
2018-09-27T01:44:32.948Z,12.96
2018-09-27T01:45:32.976Z,12.89
2018-09-27T01:46:33.002Z,12.96
2018-09-27T01:47:33.029Z,12.99
2018-09-27T01:48:33.080Z,12.91
2018-09-27T01:49:33.082Z,12.95
2018-09-27T01:50:33.109Z,12.84
2018-09-27T01:51:33.136Z,12.80
2018-09-27T01:52:33.161Z,12.89
2018-09-27T01:53:33.190Z,12.86
2018-09-27T01:54:33.215Z,12.91
2018-09-27T01:55:33.242Z,12.86
2018-09-27T01:56:33.267Z,12.89
2018-09-27T01:57:33.297Z,12.88
2018-09-27T01:58:33.321Z,12.83
2018-09-27T01:59:33.350Z,12.92
2018-09-27T02:00:33.375Z,12.94
2018-09-27T02:01:33.401Z,12.96
2018-09-27T02:02:33.429Z,12.91
2018-09-27T02:03:33.454Z,12.98
2018-09-27T02:04:33.481Z,12.96
2018-09-27T02:05:33.508Z,12.95
2018-09-27T02:06:33.536Z,13.01
2018-09-27T02:07:33.561Z,12.98
2018-09-27T02:08:33.588Z,12.92
2018-09-27T02:09:33.615Z,12.94
2018-09-27T02:10:33.643Z,12.95
2018-09-27T02:11:33.670Z,12.99
2018-09-27T02:12:33.693Z,12.94
2018-09-27T02:13:33.719Z,12.96
2018-09-27T02:14:33.747Z,13.03
2018-09-27T02:15:33.773Z,13.11
2018-09-27T02:16:33.802Z,12.99
2018-09-27T02:17:33.827Z,13.02
2018-09-27T02:18:33.854Z,13.02
2018-09-27T02:19:33.885Z,13.03
2018-09-27T02:20:33.906Z,13.09
2018-09-27T02:21:33.933Z,13.06
2018-09-27T02:22:33.961Z,13.10
2018-09-27T02:23:33.989Z,13.13
2018-09-27T02:24:34.028Z,13.14
2018-09-27T02:25:34.041Z,13.10
2018-09-27T02:26:34.067Z,13.10
2018-09-27T02:27:34.093Z,13.17
2018-09-27T02:28:34.119Z,13.10
2018-09-27T02:29:34.148Z,13.13
2018-09-27T02:30:34.192Z,13.10
2018-09-27T02:31:34.201Z,13.19
2018-09-27T02:32:34.225Z,13.16
2018-09-27T02:33:34.253Z,13.19
2018-09-27T02:34:34.299Z,13.13
2018-09-27T02:35:34.308Z,13.17
2018-09-27T02:36:34.334Z,13.20
2018-09-27T02:37:34.360Z,13.27
2018-09-27T02:38:34.385Z,13.25
2018-09-27T02:39:34.413Z,13.27
2018-09-27T02:40:34.438Z,13.28
2018-09-27T02:41:34.466Z,13.28
2018-09-27T02:42:34.491Z,13.32
2018-09-27T02:43:34.518Z,13.27
2018-09-27T02:44:34.546Z,13.24
2018-09-27T02:45:34.572Z,13.24
2018-09-27T02:46:34.601Z,13.28
2018-09-27T02:47:34.628Z,13.37
2018-09-27T02:48:34.651Z,13.35
2018-09-27T02:49:34.679Z,13.40
2018-09-27T02:50:34.704Z,13.36
2018-09-27T02:51:34.734Z,13.35
2018-09-27T02:52:34.757Z,13.44
2018-09-27T02:53:34.786Z,13.48
2018-09-27T02:54:34.810Z,13.42
2018-09-27T02:55:34.841Z,13.44
2018-09-27T02:56:34.865Z,13.45
2018-09-27T02:57:34.890Z,13.47
2018-09-27T02:58:34.917Z,13.36
2018-09-27T02:59:34.945Z,13.48
2018-09-27T03:00:34.970Z,13.42
2018-09-27T03:01:34.998Z,13.44
2018-09-27T03:02:35.022Z,13.44
2018-09-27T03:03:35.052Z,13.42
2018-09-27T03:04:35.076Z,13.39
2018-09-27T03:05:35.105Z,13.47
2018-09-27T03:06:35.132Z,13.51
2018-09-27T03:07:35.159Z,13.44
2018-09-27T03:08:35.184Z,13.42
2018-09-27T03:09:35.209Z,13.51
2018-09-27T03:10:35.236Z,13.40
2018-09-27T03:11:35.263Z,13.50
2018-09-27T03:12:35.288Z,13.47
2018-09-27T03:13:35.316Z,13.50
2018-09-27T03:14:35.343Z,13.42
2018-09-27T03:15:35.373Z,13.45
2018-09-27T03:16:35.417Z,13.45
2018-09-27T03:17:35.424Z,13.40
2018-09-27T03:18:35.459Z,13.42
2018-09-27T03:19:35.476Z,13.47
2018-09-27T03:20:35.502Z,13.51
2018-09-27T03:21:35.530Z,13.50
2018-09-27T03:22:35.556Z,13.50
2018-09-27T03:23:35.585Z,13.60
2018-09-27T03:24:35.609Z,13.57
2018-09-27T03:25:35.655Z,13.58
2018-09-27T03:26:35.665Z,13.68
2018-09-27T03:27:35.690Z,13.73
2018-09-27T03:28:35.717Z,13.69
2018-09-27T03:29:35.743Z,13.69
2018-09-27T03:30:35.770Z,13.70
2018-09-27T03:31:35.797Z,13.72
2018-09-27T03:32:35.826Z,13.73
2018-09-27T03:33:35.856Z,13.79
2018-09-27T03:34:35.878Z,13.81
2018-09-27T03:35:35.904Z,13.73
2018-09-27T03:36:35.931Z,13.81
2018-09-27T03:37:35.958Z,13.76
2018-09-27T03:38:36.004Z,13.81
2018-09-27T03:39:36.031Z,13.78
2018-09-27T03:40:36.162Z,13.75
2018-09-27T03:41:36.079Z,13.84
2018-09-27T03:42:36.093Z,13.72
2018-09-27T03:43:36.125Z,13.75
2018-09-27T03:44:36.146Z,13.86
2018-09-27T03:45:36.188Z,13.84
2018-09-27T03:46:36.200Z,13.94
2018-09-27T03:47:36.227Z,13.95
2018-09-27T03:48:36.255Z,13.86
2018-09-27T03:49:36.282Z,13.93
2018-09-27T03:50:36.308Z,13.84
2018-09-27T03:51:36.335Z,13.99
2018-09-27T03:52:36.361Z,13.95
2018-09-27T03:53:36.388Z,13.94
2018-09-27T03:54:36.415Z,13.88
2018-09-27T03:55:36.443Z,13.91
2018-09-27T03:56:36.488Z,13.94
2018-09-27T03:57:36.498Z,13.95
2018-09-27T03:58:36.525Z,14.01
2018-09-27T03:59:36.551Z,13.93
2018-09-27T04:00:36.578Z,13.88
2018-09-27T04:01:36.604Z,13.94
2018-09-27T04:02:36.633Z,14.03
2018-09-27T04:03:36.662Z,13.99
2018-09-27T04:04:36.687Z,14.03
2018-09-27T04:05:36.713Z,14.08
2018-09-27T04:06:36.741Z,14.06
2018-09-27T04:07:36.768Z,14.03
2018-09-27T04:08:36.794Z,14.03
2018-09-27T04:09:36.821Z,14.05
2018-09-27T04:10:36.849Z,14.06
2018-09-27T04:11:36.890Z,14.12
2018-09-27T04:12:36.916Z,14.08
2018-09-27T04:13:36.929Z,14.15
2018-09-27T04:14:36.955Z,14.12
2018-09-27T04:15:36.985Z,14.12
2018-09-27T04:16:37.011Z,14.15
2018-09-27T04:17:37.036Z,14.20
2018-09-27T04:18:37.064Z,14.15
2018-09-27T04:19:37.090Z,14.06
2018-09-27T04:20:37.117Z,14.08
2018-09-27T04:21:37.149Z,14.08
2018-09-27T04:22:37.177Z,14.08
2018-09-27T04:23:37.198Z,14.19
2018-09-27T04:24:37.244Z,14.12
2018-09-27T04:25:37.254Z,14.12
2018-09-27T04:26:37.280Z,14.15
2018-09-27T04:27:37.372Z,14.16
2018-09-27T04:28:37.335Z,14.13
2018-09-27T04:29:37.364Z,14.21
2018-09-27T04:30:37.388Z,14.20
2018-09-27T04:31:37.415Z,14.19
2018-09-27T04:32:37.441Z,14.11
2018-09-27T04:33:37.518Z,14.13
2018-09-27T04:34:37.495Z,14.13
2018-09-27T04:35:37.543Z,14.08
2018-09-27T04:36:37.550Z,14.03
2018-09-27T04:37:37.578Z,14.08
2018-09-27T04:38:37.605Z,14.09
2018-09-27T04:39:37.669Z,14.06
2018-09-27T04:40:37.659Z,14.20
2018-09-27T04:41:37.706Z,14.20
2018-09-27T04:42:37.714Z,14.05
2018-09-27T04:43:37.743Z,14.05
2018-09-27T04:44:37.767Z,14.06
2018-09-27T04:45:37.836Z,14.01
2018-09-27T04:46:37.885Z,14.09
2018-09-27T04:47:37.849Z,14.02
2018-09-27T04:48:37.875Z,14.03
2018-09-27T04:49:37.906Z,13.99
2018-09-27T04:50:37.934Z,14.02
2018-09-27T04:51:37.993Z,14.08
2018-09-27T04:52:37.985Z,14.03
2018-09-27T04:53:38.011Z,14.05
2018-09-27T04:54:38.102Z,14.02
2018-09-27T04:55:38.067Z,13.95
2018-09-27T04:56:38.097Z,14.01
2018-09-27T04:57:38.119Z,13.97
2018-09-27T04:58:38.146Z,14.06
2018-09-27T04:59:38.173Z,14.03
2018-09-27T05:00:38.202Z,14.03
2018-09-27T05:01:38.227Z,14.12
2018-09-27T05:02:38.254Z,14.08
2018-09-27T05:03:38.327Z,14.02
2018-09-27T05:04:38.310Z,14.11
2018-09-27T05:05:38.337Z,14.06
2018-09-27T05:06:38.362Z,14.05
2018-09-27T05:07:38.409Z,14.06
2018-09-27T05:08:38.417Z,14.06
2018-09-27T05:09:38.500Z,14.02
2018-09-27T05:10:38.473Z,14.15
2018-09-27T05:11:38.499Z,14.01
2018-09-27T05:12:38.525Z,14.09
2018-09-27T05:13:38.554Z,14.01
2018-09-27T05:14:38.579Z,14.05
2018-09-27T05:15:38.671Z,14.08
2018-09-27T05:16:38.633Z,14.12
2018-09-27T05:17:38.662Z,14.01
2018-09-27T05:18:38.689Z,14.06
2018-09-27T05:19:38.716Z,14.12
2018-09-27T05:20:38.744Z,14.19
2018-09-27T05:21:38.829Z,14.19
2018-09-27T05:22:38.796Z,14.16
2018-09-27T05:23:38.824Z,14.19
2018-09-27T05:24:38.855Z,14.12
2018-09-27T05:25:38.880Z,14.16
2018-09-27T05:26:38.904Z,14.11
2018-09-27T05:27:38.994Z,14.16
2018-09-27T05:28:38.960Z,14.16
2018-09-27T05:29:38.985Z,14.08
2018-09-27T05:30:39.034Z,14.08
2018-09-27T05:31:39.040Z,14.13
2018-09-27T05:32:39.066Z,14.12
2018-09-27T05:33:39.184Z,14.20
2018-09-27T05:34:39.122Z,14.20
2018-09-27T05:35:39.153Z,14.15
2018-09-27T05:36:39.176Z,14.15
2018-09-27T05:37:39.203Z,14.15
2018-09-27T05:38:39.231Z,14.20
2018-09-27T05:39:39.336Z,14.13
2018-09-27T05:40:39.287Z,14.23
2018-09-27T05:41:39.313Z,14.19
2018-09-27T05:42:39.337Z,14.16
2018-09-27T05:43:39.367Z,14.15
2018-09-27T05:44:39.393Z,14.11
2018-09-27T05:45:39.491Z,14.19
2018-09-27T05:46:39.447Z,14.16
2018-09-27T05:47:39.476Z,14.26
2018-09-27T05:48:39.501Z,14.20
2018-09-27T05:49:39.529Z,14.11
2018-09-27T05:50:39.556Z,14.21
2018-09-27T05:51:39.702Z,14.16
2018-09-27T05:52:39.608Z,14.13
2018-09-27T05:53:39.637Z,14.13
2018-09-27T05:54:39.664Z,14.08
2018-09-27T05:55:39.692Z,14.16
2018-09-27T05:56:39.737Z,14.21
2018-09-27T05:57:39.750Z,14.08
2018-09-27T05:58:39.771Z,14.19
2018-09-27T05:59:39.798Z,14.16
2018-09-27T06:00:39.827Z,14.12
2018-09-27T06:01:39.861Z,14.23
2018-09-27T06:02:39.881Z,14.13
2018-09-27T06:03:39.971Z,14.23
2018-09-27T06:04:39.965Z,14.09
2018-09-27T06:05:39.960Z,14.16
2018-09-27T06:06:39.992Z,14.16
2018-09-27T06:07:40.017Z,14.16
2018-09-27T06:08:40.043Z,14.21
2018-09-27T06:09:40.162Z,14.16
2018-09-27T06:10:40.095Z,14.16
2018-09-27T06:11:40.130Z,14.27
2018-09-27T06:12:40.148Z,14.19
2018-09-27T06:13:40.178Z,14.23
2018-09-27T06:14:40.203Z,14.16
2018-09-27T06:15:40.309Z,14.16
2018-09-27T06:16:40.258Z,14.26
2018-09-27T06:17:40.286Z,14.28
2018-09-27T06:18:40.314Z,14.36
2018-09-27T06:19:40.439Z,14.31
2018-09-27T06:20:40.367Z,14.33
2018-09-27T06:21:40.486Z,14.31
2018-09-27T06:22:40.421Z,14.28
2018-09-27T06:23:40.446Z,14.34
2018-09-27T06:24:40.472Z,14.30
2018-09-27T06:25:40.516Z,14.34
2018-09-27T06:26:40.528Z,14.30
2018-09-27T06:27:40.626Z,14.31
2018-09-27T06:28:40.582Z,14.33
2018-09-27T06:29:40.610Z,14.30
2018-09-27T06:30:40.636Z,14.42
2018-09-27T06:31:40.662Z,14.39
2018-09-27T06:32:40.689Z,14.41
2018-09-27T06:33:40.808Z,14.49
2018-09-27T06:34:40.746Z,14.44
2018-09-27T06:35:40.770Z,14.46
2018-09-27T06:36:40.799Z,14.56
2018-09-27T06:37:40.824Z,14.59
2018-09-27T06:38:40.914Z,14.57
2018-09-27T06:39:40.885Z,14.59
2018-09-27T06:40:40.908Z,14.75
2018-09-27T06:41:40.936Z,14.75
2018-09-27T06:42:40.962Z,14.71
2018-09-27T06:43:40.987Z,14.77
2018-09-27T06:44:41.043Z,14.70
2018-09-27T06:45:41.043Z,14.77
2018-09-27T06:46:41.069Z,14.69
2018-09-27T06:47:41.098Z,14.59
2018-09-27T06:48:41.174Z,14.63
2018-09-27T06:49:41.153Z,14.63
2018-09-27T06:50:41.290Z,14.56
2018-09-27T06:51:41.204Z,14.60
2018-09-27T06:52:41.234Z,14.64
2018-09-27T06:53:41.261Z,14.67
2018-09-27T06:54:41.292Z,14.63
2018-09-27T06:55:41.485Z,14.74
2018-09-27T06:56:41.430Z,14.79
2018-09-27T06:57:41.372Z,14.93
2018-09-27T06:58:41.396Z,14.90
2018-09-27T06:59:41.425Z,14.90
2018-09-27T07:00:41.455Z,14.97
2018-09-27T07:01:41.478Z,15.05
2018-09-27T07:02:41.607Z,15.16
2018-09-27T07:03:41.583Z,15.20
2018-09-27T07:04:41.575Z,15.20
2018-09-27T07:05:41.587Z,15.25
2018-09-27T07:06:41.615Z,15.12
2018-09-27T07:07:41.641Z,15.08
2018-09-27T07:08:41.696Z,15.18
2018-09-27T07:09:41.702Z,15.23
2018-09-27T07:10:41.723Z,15.30
2018-09-27T07:11:41.757Z,15.18
2018-09-27T07:12:41.812Z,15.25
2018-09-27T07:13:41.805Z,15.30
2018-09-27T07:14:41.915Z,15.34
2018-09-27T07:15:41.914Z,15.34
2018-09-27T07:16:41.886Z,15.34
2018-09-27T07:17:41.914Z,15.38
2018-09-27T07:18:41.954Z,15.40
2018-09-27T07:19:41.970Z,15.37
2018-09-27T07:20:42.042Z,15.47
2018-09-27T07:21:42.026Z,15.45
2018-09-27T07:22:42.057Z,15.47
2018-09-27T07:23:42.080Z,15.52
2018-09-27T07:24:42.110Z,15.60
2018-09-27T07:25:42.135Z,15.60
2018-09-27T07:26:42.226Z,15.58
2018-09-27T07:27:42.190Z,15.70
2018-09-27T07:28:42.217Z,15.68
2018-09-27T07:29:42.241Z,15.60
2018-09-27T07:30:42.274Z,15.63
2018-09-27T07:31:42.297Z,15.73
2018-09-27T07:32:42.386Z,15.88
2018-09-27T07:33:42.353Z,15.98
2018-09-27T07:34:42.379Z,16.18
2018-09-27T07:35:42.408Z,16.70
2018-09-27T07:36:42.568Z,17.15
2018-09-27T07:37:42.461Z,17.96
2018-09-27T07:38:42.552Z,18.54
2018-09-27T07:39:42.519Z,19.28
2018-09-27T07:40:42.545Z,19.63
2018-09-27T07:41:42.573Z,19.16
2018-09-27T07:42:42.664Z,18.39
2018-09-27T07:43:42.631Z,17.73
2018-09-27T07:44:42.728Z,17.36
2018-09-27T07:45:42.686Z,17.27
2018-09-27T07:46:42.720Z,17.31
2018-09-27T07:47:42.745Z,17.42
2018-09-27T07:48:42.775Z,18.02
2018-09-27T07:49:42.802Z,18.87
2018-09-27T07:50:42.953Z,19.83
2018-09-27T07:51:42.861Z,20.02
2018-09-27T07:52:42.893Z,20.27
2018-09-27T07:53:42.920Z,20.38
2018-09-27T07:54:43.003Z,20.83
2018-09-27T07:55:42.980Z,21.04
2018-09-27T07:56:43.124Z,21.41
2018-09-27T07:57:43.043Z,21.21
2018-09-27T07:58:43.072Z,21.62
2018-09-27T07:59:43.103Z,21.96
2018-09-27T08:00:43.135Z,22.26
2018-09-27T08:01:43.165Z,22.33
2018-09-27T08:02:43.280Z,22.71
2018-09-27T08:03:43.271Z,22.61
2018-09-27T08:04:43.265Z,22.54
2018-09-27T08:05:43.296Z,22.52
2018-09-27T08:06:43.326Z,22.63
2018-09-27T08:07:43.359Z,22.24
2018-09-27T08:08:43.500Z,22.46
2018-09-27T08:09:43.426Z,22.04
2018-09-27T08:10:43.458Z,22.20
2018-09-27T08:11:43.523Z,22.75
2018-09-27T08:13:43.561Z,22.99
2018-09-27T08:14:43.620Z,22.82
2018-09-27T08:15:43.629Z,23.26
2018-09-27T08:16:43.732Z,23.29
2018-09-27T08:17:43.699Z,23.34
2018-09-27T08:18:43.740Z,23.35
2018-09-27T08:19:43.770Z,23.19
2018-09-27T08:20:44.049Z,23.64
2018-09-27T08:21:43.842Z,24.07
2018-09-27T08:22:43.873Z,24.15
2018-09-27T08:23:43.911Z,23.57
2018-09-27T08:24:43.948Z,23.38
2018-09-27T08:25:43.981Z,24.08
2018-09-27T08:26:44.037Z,24.00
2018-09-27T08:27:44.056Z,23.63
2018-09-27T08:28:44.092Z,23.62
2018-09-27T08:29:44.450Z,24.49
2018-09-27T08:36:36.826Z,24.92
2018-09-27T08:37:36.832Z,24.32
2018-09-27T08:38:36.918Z,24.19
2018-09-27T08:39:36.897Z,24.39
2018-09-27T08:48:52.979Z,24.48
2018-09-27T08:49:53.015Z,24.55
2018-09-27T08:50:53.375Z,24.33
2018-09-27T08:51:53.089Z,25.04
2018-09-27T08:52:53.129Z,24.34
2018-09-27T08:53:53.167Z,24.07
2018-09-27T08:54:53.204Z,24.02
2018-09-27T08:59:44.255Z,24.70
2018-09-27T09:00:44.312Z,25.08
2018-09-27T09:01:44.434Z,24.92
2018-09-27T09:02:44.366Z,24.59
2018-09-27T09:03:44.523Z,24.49
2018-09-27T09:04:44.444Z,24.34
2018-09-27T09:06:27.042Z,24.55
2018-09-27T09:07:27.086Z,24.94
2018-09-27T09:08:27.117Z,24.87
2018-09-27T09:09:27.211Z,24.59
2018-09-27T09:10:27.193Z,24.64
2018-09-27T09:11:27.232Z,24.27
2018-09-27T09:12:27.270Z,24.67
2018-09-27T09:13:27.342Z,24.27
2018-09-27T09:14:27.348Z,24.55
2018-09-27T09:15:27.431Z,24.67
2018-09-27T09:16:27.425Z,24.64
2018-09-27T09:17:27.462Z,24.75
2018-09-27T09:18:27.501Z,24.27
2018-09-27T09:19:27.569Z,24.63
2018-09-27T09:20:27.577Z,24.27
2018-09-27T09:21:27.661Z,24.66
2018-09-27T09:22:27.652Z,24.94
2018-09-27T09:23:27.690Z,25.20
2018-09-27T09:24:27.747Z,25.26
2018-09-27T09:25:27.810Z,25.11
2018-09-27T09:26:27.808Z,25.45
2018-09-27T09:27:27.903Z,25.71
2018-09-27T09:28:27.941Z,25.93
2018-09-27T09:29:27.955Z,25.54
2018-09-27T09:30:27.961Z,25.57
2018-09-27T09:31:27.999Z,25.44
2018-09-27T09:32:28.038Z,25.86
2018-09-27T09:33:28.112Z,26.16
2018-09-27T09:34:28.113Z,25.91
2018-09-27T09:35:28.208Z,25.88
2018-09-27T09:37:28.230Z,25.85
2018-09-27T09:38:28.270Z,25.70
2018-09-27T09:39:28.309Z,25.85
2018-09-27T09:40:28.346Z,25.63
2018-09-27T09:41:28.384Z,25.42
2018-09-27T09:43:46.081Z,25.39
2018-09-27T09:44:48.732Z,25.64
2018-09-27T09:45:46.142Z,25.78
2018-09-27T09:46:46.185Z,26.20
2018-09-27T09:47:46.219Z,26.41
2018-09-27T09:48:46.262Z,26.24
2018-09-27T09:49:46.296Z,26.23
2018-09-27T09:50:46.341Z,25.94
2018-09-27T09:51:46.376Z,26.00
2018-09-27T09:52:46.415Z,25.56
2018-09-27T09:53:46.453Z,25.94
2018-09-27T09:54:46.493Z,26.45
2018-09-27T09:55:46.531Z,26.64
2018-09-27T09:56:46.570Z,26.81
2018-09-27T09:57:46.609Z,27.15
2018-09-27T09:58:46.661Z,26.82
2018-09-27T09:59:46.684Z,26.39
2018-09-27T10:00:46.723Z,26.32
2018-09-27T10:01:46.768Z,26.22
2018-09-27T10:02:46.800Z,26.37
2018-09-27T10:03:46.838Z,26.72
2018-09-27T10:04:46.897Z,26.94
2018-09-27T10:05:46.934Z,26.34
2018-09-27T10:06:46.974Z,26.53
2018-09-27T10:07:47.316Z,26.75
2018-09-27T10:08:47.100Z,26.20
2018-09-27T10:09:47.073Z,26.31
2018-09-27T10:10:47.111Z,26.32
2018-09-27T10:12:47.187Z,26.24
2018-09-27T10:13:47.228Z,26.11
2018-09-27T10:14:47.692Z,26.27
2018-09-27T10:15:47.307Z,26.39
2018-09-27T10:16:47.670Z,26.44
2018-09-27T10:17:47.599Z,26.52
2018-09-27T10:18:47.422Z,26.89
2018-09-27T10:19:47.786Z,27.18
2018-09-27T10:20:47.514Z,27.55
2018-09-27T10:21:47.576Z,27.13
2018-09-27T10:22:47.600Z,27.19
2018-09-27T10:24:47.657Z,27.24
2018-09-27T10:25:47.711Z,27.52
2018-09-27T10:26:47.961Z,27.93
2018-09-27T10:27:47.789Z,27.81
2018-09-27T10:28:47.809Z,27.91
2018-09-27T10:29:47.848Z,27.72
2018-09-27T10:30:47.907Z,27.81
2018-09-27T10:31:47.949Z,28.14
2018-09-27T10:32:47.964Z,27.51
2018-09-27T10:33:48.004Z,27.30
2018-09-27T10:34:48.044Z,27.46
2018-09-27T10:35:48.084Z,27.96
2018-09-27T10:36:48.124Z,27.84
2018-09-27T10:37:48.162Z,27.90
2018-09-27T10:38:48.199Z,28.28
2018-09-27T10:39:48.239Z,27.65
2018-09-27T10:40:48.277Z,27.87
2018-09-27T10:41:50.937Z,27.83
2018-09-27T10:42:48.355Z,28.18
2018-09-27T10:43:48.394Z,28.58
2018-09-27T10:44:48.469Z,27.75
2018-09-27T10:45:51.701Z,27.19
2018-09-27T10:46:48.508Z,27.86
2018-09-27T10:47:48.546Z,28.21
2018-09-27T10:48:48.585Z,27.89
2018-09-27T10:49:48.626Z,27.38
2018-09-27T10:50:48.668Z,27.66
2018-09-27T10:51:48.706Z,27.66
2018-09-27T10:52:48.749Z,27.96
2018-09-27T10:53:48.793Z,28.14
2018-09-27T10:54:48.824Z,28.06
2018-09-27T10:55:48.861Z,28.45
2018-09-27T10:56:48.901Z,27.79
2018-09-27T10:57:48.942Z,28.38
2018-09-27T10:58:48.983Z,28.12
2018-09-27T10:59:49.019Z,28.26
2018-09-27T11:00:49.059Z,28.28
2018-09-27T11:01:49.100Z,28.51
2018-09-27T11:02:49.140Z,28.42
2018-09-27T11:03:49.177Z,28.31
2018-09-27T11:04:49.218Z,28.36
2018-09-27T11:05:49.584Z,29.01
2018-09-27T11:06:49.310Z,29.35
2018-09-27T11:07:49.334Z,29.54
2018-09-27T11:08:49.374Z,29.15
2018-09-27T11:09:49.414Z,28.94
2018-09-27T11:10:49.460Z,29.28
2018-09-27T11:11:49.492Z,28.75
2018-09-27T11:12:49.532Z,28.60
2018-09-27T11:13:49.573Z,28.88
2018-09-27T11:14:49.616Z,28.72
2018-09-27T11:15:49.650Z,29.21
2018-09-27T11:16:49.691Z,29.23
2018-09-27T11:17:49.730Z,28.91
2018-09-27T11:18:49.772Z,28.85
2018-09-27T11:19:49.809Z,28.63
2018-09-27T11:20:49.851Z,28.06
2018-09-27T11:21:49.893Z,28.38
2018-09-27T11:22:49.984Z,28.83
2018-09-27T11:23:49.969Z,29.33
2018-09-27T11:24:50.009Z,28.94
2018-09-27T11:25:50.050Z,29.29
2018-09-27T11:26:50.089Z,29.33
2018-09-27T11:27:50.144Z,29.33
2018-09-27T11:28:50.188Z,29.67
2018-09-27T11:29:50.208Z,29.52
2018-09-27T11:30:50.251Z,29.13
2018-09-27T11:31:50.286Z,28.88
2018-09-27T11:32:50.332Z,29.15
2018-09-27T11:33:50.366Z,28.72
2018-09-27T11:34:50.404Z,28.48
2018-09-27T11:35:50.443Z,28.43
2018-09-27T11:36:50.486Z,28.54
2018-09-27T11:37:50.525Z,28.68
2018-09-27T11:38:50.569Z,28.53
2018-09-27T11:39:50.603Z,28.21
2018-09-27T11:40:50.642Z,28.35
2018-09-27T11:41:50.684Z,29.08
2018-09-27T11:42:50.783Z,29.48
2018-09-27T11:43:50.804Z,29.52
2018-09-27T11:44:50.803Z,29.15
2018-09-27T11:45:50.853Z,29.33
2018-09-27T11:46:50.878Z,28.65
2018-09-27T11:47:50.919Z,29.18
2018-09-27T11:48:50.969Z,29.33
2018-09-27T11:49:51.058Z,29.67
2018-09-27T11:50:51.037Z,29.79
2018-09-27T11:51:51.074Z,29.57
2018-09-27T11:52:51.114Z,29.84
2018-09-27T11:53:51.200Z,29.92
2018-09-27T11:54:51.223Z,29.14
2018-09-27T11:55:51.235Z,28.98
2018-09-27T11:56:51.272Z,28.91
2018-09-27T11:57:51.312Z,29.48
2018-09-27T11:58:51.391Z,29.50
2018-09-27T11:59:51.389Z,29.36
2018-09-27T12:00:51.428Z,28.91
2018-09-27T12:01:51.469Z,28.55
2018-09-27T12:02:51.509Z,28.53
2018-09-27T12:03:51.547Z,28.41
2018-09-27T12:04:51.585Z,28.64
2018-09-27T12:05:51.631Z,28.95
2018-09-27T12:06:51.663Z,29.13
2018-09-27T12:07:51.703Z,29.36
2018-09-27T12:08:51.759Z,30.00
2018-09-27T12:09:51.798Z,29.33
2018-09-27T12:10:51.821Z,29.28
2018-09-27T12:11:51.892Z,28.70
2018-09-27T12:12:51.914Z,28.43
2018-09-27T12:13:51.938Z,28.85
2018-09-27T12:14:51.977Z,29.01
2018-09-27T12:15:52.015Z,28.49
2018-09-27T12:16:52.059Z,28.73
2018-09-27T12:17:52.103Z,28.73
2018-09-27T12:18:52.134Z,28.73
2018-09-27T12:19:52.212Z,29.51
2018-09-27T12:20:52.207Z,28.95
2018-09-27T12:21:52.245Z,29.70
2018-09-27T12:22:52.336Z,29.39
2018-09-27T12:23:52.325Z,28.86
2018-09-27T12:24:52.362Z,28.97
2018-09-27T12:25:52.403Z,29.38
2018-09-27T12:26:52.441Z,28.67
2018-09-27T12:27:52.477Z,29.17
2018-09-27T12:28:52.519Z,28.85
2018-09-27T12:29:52.555Z,28.80
2018-09-27T12:30:52.597Z,29.38
2018-09-27T12:31:52.632Z,29.32
2018-09-27T12:32:52.680Z,29.73
2018-09-27T12:33:52.715Z,29.97
2018-09-27T12:34:52.746Z,30.39
2018-09-27T12:35:52.783Z,30.63
2018-09-27T12:36:52.827Z,30.39
2018-09-27T12:37:52.862Z,30.19
2018-09-27T12:38:52.976Z,30.06
2018-09-27T12:39:52.936Z,30.07
2018-09-27T12:40:52.977Z,30.69
2018-09-27T12:41:53.088Z,30.37
2018-09-27T12:42:53.062Z,30.66
2018-09-27T12:43:53.106Z,31.04
2018-09-27T12:44:53.185Z,31.41
2018-09-27T12:45:53.248Z,30.96
2018-09-27T12:46:53.319Z,30.66
2018-09-27T12:47:53.247Z,30.19
2018-09-27T12:48:53.291Z,29.72
2018-09-27T12:49:53.323Z,28.98
2018-09-27T12:50:53.369Z,29.42
2018-09-27T12:51:53.557Z,29.26
2018-09-27T12:52:53.523Z,29.32
2018-09-27T12:53:53.479Z,29.43
2018-09-27T12:54:53.515Z,30.10
2018-09-27T12:55:53.575Z,30.44
2018-09-27T12:56:53.590Z,30.73
2018-09-27T12:57:53.630Z,30.14
2018-09-27T12:58:53.668Z,30.39
2018-09-27T12:59:53.704Z,30.25
2018-09-27T13:00:53.777Z,30.14
2018-09-27T13:01:53.868Z,30.26
2018-09-27T13:02:53.941Z,30.21
2018-09-27T13:03:53.864Z,29.84
2018-09-27T13:04:53.894Z,29.75
2018-09-27T13:05:53.934Z,29.91
2018-09-27T13:06:53.978Z,29.58
2018-09-27T13:07:54.008Z,29.61
2018-09-27T13:08:54.065Z,29.98
2018-09-27T13:09:54.239Z,29.92
2018-09-27T13:10:58.162Z,29.52
2018-09-27T13:11:54.170Z,30.03
2018-09-27T13:12:54.343Z,29.61
2018-09-27T13:13:54.234Z,29.70
2018-09-27T13:14:54.324Z,28.98
2018-09-27T13:15:54.313Z,29.21
2018-09-27T13:16:54.346Z,29.32
2018-09-27T13:17:54.387Z,29.45